sensor_id;sensor_type;location;lat;lon;timestamp;temperature;humidity
16966;DHT22;8599;47.852;12.070;2022-09-17T00:01:17;12.20;99.90
16966;DHT22;8599;47.852;12.070;2022-09-17T00:03:48;12.20;99.90
16966;DHT22;8599;47.852;12.070;2022-09-17T00:06:14;12.20;99.90
16966;DHT22;8599;47.852;12.070;2022-09-17T00:08:41;12.20;99.90
16966;DHT22;8599;47.852;12.070;2022-09-17T00:11:10;12.20;99.90
16966;DHT22;8599;47.852;12.070;2022-09-17T00:13:38;12.20;99.90
16966;DHT22;8599;47.852;12.070;2022-09-17T00:16:06;12.20;99.90
16966;DHT22;8599;47.852;12.070;2022-09-17T00:18:34;12.20;99.90
16966;DHT22;8599;47.852;12.070;2022-09-17T00:21:05;12.20;99.90
16966;DHT22;8599;47.852;12.070;2022-09-17T00:23:32;12.30;99.90
16966;DHT22;8599;47.852;12.070;2022-09-17T00:26:04;12.30;99.90
16966;DHT22;8599;47.852;12.070;2022-09-17T00:28:32;12.20;99.90
16966;DHT22;8599;47.852;12.070;2022-09-17T00:30:59;12.20;99.90
16966;DHT22;8599;47.852;12.070;2022-09-17T00:33:27;12.20;99.90
16966;DHT22;8599;47.852;12.070;2022-09-17T00:35:58;12.20;99.90
16966;DHT22;8599;47.852;12.070;2022-09-17T00:38:25;12.20;99.90
16966;DHT22;8599;47.852;12.070;2022-09-17T00:40:51;12.20;99.90
16966;DHT22;8599;47.852;12.070;2022-09-17T00:43:35;12.20;99.90
16966;DHT22;8599;47.852;12.070;2022-09-17T00:46:03;12.20;99.90
16966;DHT22;8599;47.852;12.070;2022-09-17T00:48:32;12.20;99.90
16966;DHT22;8599;47.852;12.070;2022-09-17T00:51:00;12.10;99.90
16966;DHT22;8599;47.852;12.070;2022-09-17T00:53:27;12.10;99.90
16966;DHT22;8599;47.852;12.070;2022-09-17T00:56:00;12.10;99.90
16966;DHT22;8599;47.852;12.070;2022-09-17T00:58:27;12.10;99.90
16966;DHT22;8599;47.852;12.070;2022-09-17T01:00:55;12.00;99.90
16966;DHT22;8599;47.852;12.070;2022-09-17T01:03:22;12.00;99.90
16966;DHT22;8599;47.852;12.070;2022-09-17T01:05:57;12.00;99.90
16966;DHT22;8599;47.852;12.070;2022-09-17T01:08:30;11.70;99.90
16966;DHT22;8599;47.852;12.070;2022-09-17T01:11:16;11.60;99.90
16966;DHT22;8599;47.852;12.070;2022-09-17T01:13:54;11.60;99.90
16966;DHT22;8599;47.852;12.070;2022-09-17T01:16:30;11.60;99.90
16966;DHT22;8599;47.852;12.070;2022-09-17T01:19:10;11.50;99.90
16966;DHT22;8599;47.852;12.070;2022-09-17T01:21:55;11.50;99.90
16966;DHT22;8599;47.852;12.070;2022-09-17T01:24:47;11.40;99.90
16966;DHT22;8599;47.852;12.070;2022-09-17T01:30:28;11.30;99.90
16966;DHT22;8599;47.852;12.070;2022-09-17T01:32:59;11.40;99.90
16966;DHT22;8599;47.852;12.070;2022-09-17T01:35:33;11.40;99.90
16966;DHT22;8599;47.852;12.070;2022-09-17T01:38:09;11.40;99.90
16966;DHT22;8599;47.852;12.070;2022-09-17T01:40:42;11.40;99.90
16966;DHT22;8599;47.852;12.070;2022-09-17T01:43:14;11.40;99.90
16966;DHT22;8599;47.852;12.070;2022-09-17T01:45:50;11.50;99.90
16966;DHT22;8599;47.852;12.070;2022-09-17T01:48:18;11.60;99.90
16966;DHT22;8599;47.852;12.070;2022-09-17T01:50:48;11.60;99.90
16966;DHT22;8599;47.852;12.070;2022-09-17T01:53:19;11.50;99.90
16966;DHT22;8599;47.852;12.070;2022-09-17T01:55:50;11.60;99.90
16966;DHT22;8599;47.852;12.070;2022-09-17T01:58:20;11.60;99.90
16966;DHT22;8599;47.852;12.070;2022-09-17T02:00:54;11.50;99.90
16966;DHT22;8599;47.852;12.070;2022-09-17T02:03:24;11.50;99.90
16966;DHT22;8599;47.852;12.070;2022-09-17T02:05:58;11.50;99.90
16966;DHT22;8599;47.852;12.070;2022-09-17T02:08:29;11.40;99.90
16966;DHT22;8599;47.852;12.070;2022-09-17T02:11:05;11.50;99.90
16966;DHT22;8599;47.852;12.070;2022-09-17T02:13:36;11.50;99.90
16966;DHT22;8599;47.852;12.070;2022-09-17T02:16:09;11.50;99.90
16966;DHT22;8599;47.852;12.070;2022-09-17T02:18:42;11.50;99.90
16966;DHT22;8599;47.852;12.070;2022-09-17T02:21:15;11.50;99.90
16966;DHT22;8599;47.852;12.070;2022-09-17T02:23:49;11.60;99.90
16966;DHT22;8599;47.852;12.070;2022-09-17T02:26:19;11.60;99.90
16966;DHT22;8599;47.852;12.070;2022-09-17T02:28:49;11.60;99.90
16966;DHT22;8599;47.852;12.070;2022-09-17T02:31:18;11.70;99.90
16966;DHT22;8599;47.852;12.070;2022-09-17T02:33:48;11.70;99.90
16966;DHT22;8599;47.852;12.070;2022-09-17T02:36:17;11.80;99.90
16966;DHT22;8599;47.852;12.070;2022-09-17T02:38:45;11.70;99.90
16966;DHT22;8599;47.852;12.070;2022-09-17T02:41:15;11.80;99.90
16966;DHT22;8599;47.852;12.070;2022-09-17T02:43:50;11.80;99.90
16966;DHT22;8599;47.852;12.070;2022-09-17T02:46:42;11.70;99.90
16966;DHT22;8599;47.852;12.070;2022-09-17T02:49:30;11.60;99.90
16966;DHT22;8599;47.852;12.070;2022-09-17T02:52:10;11.60;99.90
16966;DHT22;8599;47.852;12.070;2022-09-17T02:54:42;11.60;99.90
16966;DHT22;8599;47.852;12.070;2022-09-17T02:57:16;11.60;99.90
16966;DHT22;8599;47.852;12.070;2022-09-17T02:59:51;11.60;99.90
16966;DHT22;8599;47.852;12.070;2022-09-17T03:02:27;11.70;99.90
16966;DHT22;8599;47.852;12.070;2022-09-17T03:04:56;11.80;99.90
16966;DHT22;8599;47.852;12.070;2022-09-17T03:07:24;11.80;99.90
16966;DHT22;8599;47.852;12.070;2022-09-17T03:09:51;11.80;99.90
16966;DHT22;8599;47.852;12.070;2022-09-17T03:12:17;11.80;99.90
16966;DHT22;8599;47.852;12.070;2022-09-17T03:14:44;11.70;99.90
16966;DHT22;8599;47.852;12.070;2022-09-17T03:17:11;11.70;99.90
16966;DHT22;8599;47.852;12.070;2022-09-17T03:19:40;11.60;99.90
16966;DHT22;8599;47.852;12.070;2022-09-17T03:22:07;11.60;99.90
16966;DHT22;8599;47.852;12.070;2022-09-17T03:24:34;11.60;99.90
16966;DHT22;8599;47.852;12.070;2022-09-17T03:27:01;11.50;99.90
16966;DHT22;8599;47.852;12.070;2022-09-17T03:29:28;11.60;99.90
16966;DHT22;8599;47.852;12.070;2022-09-17T03:31:54;11.60;99.90
16966;DHT22;8599;47.852;12.070;2022-09-17T03:34:22;11.60;99.90
16966;DHT22;8599;47.852;12.070;2022-09-17T03:36:50;11.60;99.90
16966;DHT22;8599;47.852;12.070;2022-09-17T03:39:17;11.70;99.90
16966;DHT22;8599;47.852;12.070;2022-09-17T03:41:44;11.60;99.90
16966;DHT22;8599;47.852;12.070;2022-09-17T03:44:10;11.60;99.90
16966;DHT22;8599;47.852;12.070;2022-09-17T03:46:37;11.50;99.90
16966;DHT22;8599;47.852;12.070;2022-09-17T03:49:04;11.50;99.90
16966;DHT22;8599;47.852;12.070;2022-09-17T03:51:31;11.50;99.90
16966;DHT22;8599;47.852;12.070;2022-09-17T03:53:59;11.50;99.90
16966;DHT22;8599;47.852;12.070;2022-09-17T03:56:26;11.40;99.90
16966;DHT22;8599;47.852;12.070;2022-09-17T03:58:56;11.30;99.90
16966;DHT22;8599;47.852;12.070;2022-09-17T04:01:23;11.40;99.90
16966;DHT22;8599;47.852;12.070;2022-09-17T04:03:50;11.30;99.90
16966;DHT22;8599;47.852;12.070;2022-09-17T04:06:17;11.40;99.90
16966;DHT22;8599;47.852;12.070;2022-09-17T04:08:44;11.40;99.90
16966;DHT22;8599;47.852;12.070;2022-09-17T04:11:12;11.40;99.90
16966;DHT22;8599;47.852;12.070;2022-09-17T04:13:39;11.30;99.90
16966;DHT22;8599;47.852;12.070;2022-09-17T04:16:06;11.30;99.90
16966;DHT22;8599;47.852;12.070;2022-09-17T04:18:33;11.20;99.90
16966;DHT22;8599;47.852;12.070;2022-09-17T04:21:00;11.20;99.90
16966;DHT22;8599;47.852;12.070;2022-09-17T04:23:26;11.20;99.90
16966;DHT22;8599;47.852;12.070;2022-09-17T04:25:53;11.20;99.90
16966;DHT22;8599;47.852;12.070;2022-09-17T04:28:21;11.10;99.90
16966;DHT22;8599;47.852;12.070;2022-09-17T04:30:48;11.00;99.90
16966;DHT22;8599;47.852;12.070;2022-09-17T04:33:15;11.00;99.90
16966;DHT22;8599;47.852;12.070;2022-09-17T04:35:42;11.00;99.90
16966;DHT22;8599;47.852;12.070;2022-09-17T04:38:09;10.90;99.90
16966;DHT22;8599;47.852;12.070;2022-09-17T04:40:39;10.90;99.90
16966;DHT22;8599;47.852;12.070;2022-09-17T04:43:07;10.90;99.90
16966;DHT22;8599;47.852;12.070;2022-09-17T04:45:36;10.70;99.90
16966;DHT22;8599;47.852;12.070;2022-09-17T04:48:03;10.70;99.90
16966;DHT22;8599;47.852;12.070;2022-09-17T04:50:31;10.70;99.90
16966;DHT22;8599;47.852;12.070;2022-09-17T04:52:58;10.60;99.90
16966;DHT22;8599;47.852;12.070;2022-09-17T04:55:24;10.70;99.90
16966;DHT22;8599;47.852;12.070;2022-09-17T04:57:52;10.60;99.90
16966;DHT22;8599;47.852;12.070;2022-09-17T05:00:20;10.60;99.90
16966;DHT22;8599;47.852;12.070;2022-09-17T05:02:50;10.70;99.90
16966;DHT22;8599;47.852;12.070;2022-09-17T05:05:17;10.80;99.90
16966;DHT22;8599;47.852;12.070;2022-09-17T05:07:44;10.80;99.90
16966;DHT22;8599;47.852;12.070;2022-09-17T05:10:13;10.80;99.90
16966;DHT22;8599;47.852;12.070;2022-09-17T05:12:40;10.90;99.90
16966;DHT22;8599;47.852;12.070;2022-09-17T05:15:07;10.90;99.90
16966;DHT22;8599;47.852;12.070;2022-09-17T05:17:34;11.00;99.90
16966;DHT22;8599;47.852;12.070;2022-09-17T05:20:02;10.90;99.90
16966;DHT22;8599;47.852;12.070;2022-09-17T05:22:29;11.00;99.90
16966;DHT22;8599;47.852;12.070;2022-09-17T05:24:56;11.10;99.90
16966;DHT22;8599;47.852;12.070;2022-09-17T05:27:22;11.20;99.90
16966;DHT22;8599;47.852;12.070;2022-09-17T05:29:49;11.10;99.90
16966;DHT22;8599;47.852;12.070;2022-09-17T05:32:16;11.00;99.90
16966;DHT22;8599;47.852;12.070;2022-09-17T05:34:43;11.20;99.90
16966;DHT22;8599;47.852;12.070;2022-09-17T05:37:11;11.20;99.90
16966;DHT22;8599;47.852;12.070;2022-09-17T05:39:38;11.20;99.90
16966;DHT22;8599;47.852;12.070;2022-09-17T05:42:05;11.20;99.90
16966;DHT22;8599;47.852;12.070;2022-09-17T05:44:32;11.10;99.90
16966;DHT22;8599;47.852;12.070;2022-09-17T05:46:59;11.00;99.90
16966;DHT22;8599;47.852;12.070;2022-09-17T05:49:26;11.00;99.90
16966;DHT22;8599;47.852;12.070;2022-09-17T05:51:53;11.00;99.90
16966;DHT22;8599;47.852;12.070;2022-09-17T05:54:21;11.00;99.90
16966;DHT22;8599;47.852;12.070;2022-09-17T05:56:48;11.00;99.90
16966;DHT22;8599;47.852;12.070;2022-09-17T05:59:18;10.90;99.90
16966;DHT22;8599;47.852;12.070;2022-09-17T06:01:44;10.90;99.90
16966;DHT22;8599;47.852;12.070;2022-09-17T06:04:11;11.00;99.90
16966;DHT22;8599;47.852;12.070;2022-09-17T06:06:39;11.00;99.90
16966;DHT22;8599;47.852;12.070;2022-09-17T06:09:06;11.10;99.90
16966;DHT22;8599;47.852;12.070;2022-09-17T06:11:35;11.00;99.90
16966;DHT22;8599;47.852;12.070;2022-09-17T06:14:02;11.10;99.90
16966;DHT22;8599;47.852;12.070;2022-09-17T06:16:29;11.00;99.90
16966;DHT22;8599;47.852;12.070;2022-09-17T06:18:56;11.10;99.90
16966;DHT22;8599;47.852;12.070;2022-09-17T06:21:23;11.00;99.90
16966;DHT22;8599;47.852;12.070;2022-09-17T06:23:50;11.00;99.90
16966;DHT22;8599;47.852;12.070;2022-09-17T06:26:17;11.10;99.90
16966;DHT22;8599;47.852;12.070;2022-09-17T06:28:45;11.10;99.90
16966;DHT22;8599;47.852;12.070;2022-09-17T06:31:12;11.00;99.90
16966;DHT22;8599;47.852;12.070;2022-09-17T06:33:39;11.00;99.90
16966;DHT22;8599;47.852;12.070;2022-09-17T06:36:08;11.00;99.90
16966;DHT22;8599;47.852;12.070;2022-09-17T06:38:36;11.00;99.90
16966;DHT22;8599;47.852;12.070;2022-09-17T06:41:03;10.90;99.90
16966;DHT22;8599;47.852;12.070;2022-09-17T06:43:30;10.90;99.90
16966;DHT22;8599;47.852;12.070;2022-09-17T06:45:59;10.90;99.90
16966;DHT22;8599;47.852;12.070;2022-09-17T06:48:28;10.90;99.90
16966;DHT22;8599;47.852;12.070;2022-09-17T06:50:59;11.00;99.90
16966;DHT22;8599;47.852;12.070;2022-09-17T06:53:27;10.90;99.90
16966;DHT22;8599;47.852;12.070;2022-09-17T06:55:56;11.10;99.90
16966;DHT22;8599;47.852;12.070;2022-09-17T06:58:23;11.00;99.90
16966;DHT22;8599;47.852;12.070;2022-09-17T07:00:49;10.90;99.90
16966;DHT22;8599;47.852;12.070;2022-09-17T07:03:17;10.90;99.90
16966;DHT22;8599;47.852;12.070;2022-09-17T07:05:44;10.90;99.90
16966;DHT22;8599;47.852;12.070;2022-09-17T07:08:11;10.90;99.90
16966;DHT22;8599;47.852;12.070;2022-09-17T07:10:38;10.90;99.90
16966;DHT22;8599;47.852;12.070;2022-09-17T07:13:06;10.90;99.90
16966;DHT22;8599;47.852;12.070;2022-09-17T07:15:33;10.80;99.90
16966;DHT22;8599;47.852;12.070;2022-09-17T07:18:06;10.80;99.90
16966;DHT22;8599;47.852;12.070;2022-09-17T07:20:35;10.80;99.90
16966;DHT22;8599;47.852;12.070;2022-09-17T07:23:01;10.80;99.90
16966;DHT22;8599;47.852;12.070;2022-09-17T07:25:28;11.00;99.90
16966;DHT22;8599;47.852;12.070;2022-09-17T07:27:55;11.10;99.90
16966;DHT22;8599;47.852;12.070;2022-09-17T07:30:22;11.20;99.90
16966;DHT22;8599;47.852;12.070;2022-09-17T07:32:49;11.20;99.90
16966;DHT22;8599;47.852;12.070;2022-09-17T07:35:16;11.30;99.90
16966;DHT22;8599;47.852;12.070;2022-09-17T07:37:44;11.40;99.90
16966;DHT22;8599;47.852;12.070;2022-09-17T07:40:11;11.30;99.90
16966;DHT22;8599;47.852;12.070;2022-09-17T07:42:38;11.30;99.90
16966;DHT22;8599;47.852;12.070;2022-09-17T07:45:06;11.20;99.90
16966;DHT22;8599;47.852;12.070;2022-09-17T07:47:37;11.20;99.90
16966;DHT22;8599;47.852;12.070;2022-09-17T07:50:05;11.30;99.90
16966;DHT22;8599;47.852;12.070;2022-09-17T07:52:32;11.30;99.90
16966;DHT22;8599;47.852;12.070;2022-09-17T07:55:01;11.20;99.90
16966;DHT22;8599;47.852;12.070;2022-09-17T07:57:27;11.00;99.90
16966;DHT22;8599;47.852;12.070;2022-09-17T07:59:54;11.10;99.90
16966;DHT22;8599;47.852;12.070;2022-09-17T08:02:21;11.00;99.90
16966;DHT22;8599;47.852;12.070;2022-09-17T08:04:48;10.80;99.90
16966;DHT22;8599;47.852;12.070;2022-09-17T08:07:15;10.80;99.90
16966;DHT22;8599;47.852;12.070;2022-09-17T08:09:41;10.90;99.90
16966;DHT22;8599;47.852;12.070;2022-09-17T08:12:10;11.00;99.90
16966;DHT22;8599;47.852;12.070;2022-09-17T08:14:36;10.90;99.90
16966;DHT22;8599;47.852;12.070;2022-09-17T08:17:05;11.00;99.90
16966;DHT22;8599;47.852;12.070;2022-09-17T08:19:33;11.10;99.90
16966;DHT22;8599;47.852;12.070;2022-09-17T08:21:59;11.00;99.90
16966;DHT22;8599;47.852;12.070;2022-09-17T08:24:26;11.00;99.90
16966;DHT22;8599;47.852;12.070;2022-09-17T08:26:53;11.10;99.90
16966;DHT22;8599;47.852;12.070;2022-09-17T08:29:21;11.20;99.90
16966;DHT22;8599;47.852;12.070;2022-09-17T08:31:48;11.30;99.90
16966;DHT22;8599;47.852;12.070;2022-09-17T08:34:15;11.30;99.90
16966;DHT22;8599;47.852;12.070;2022-09-17T08:36:42;11.30;99.90
16966;DHT22;8599;47.852;12.070;2022-09-17T08:39:09;11.50;99.90
16966;DHT22;8599;47.852;12.070;2022-09-17T08:41:54;11.50;99.90
16966;DHT22;8599;47.852;12.070;2022-09-17T08:44:29;11.60;99.90
16966;DHT22;8599;47.852;12.070;2022-09-17T08:46:59;11.80;99.90
16966;DHT22;8599;47.852;12.070;2022-09-17T08:49:34;11.90;99.90
16966;DHT22;8599;47.852;12.070;2022-09-17T08:54:55;11.90;99.90
16966;DHT22;8599;47.852;12.070;2022-09-17T08:57:28;12.00;99.90
16966;DHT22;8599;47.852;12.070;2022-09-17T09:00:02;11.90;99.90
16966;DHT22;8599;47.852;12.070;2022-09-17T09:02:44;11.90;99.90
16966;DHT22;8599;47.852;12.070;2022-09-17T09:05:18;12.00;99.90
16966;DHT22;8599;47.852;12.070;2022-09-17T09:07:50;12.00;99.90
16966;DHT22;8599;47.852;12.070;2022-09-17T09:10:20;12.00;99.90
16966;DHT22;8599;47.852;12.070;2022-09-17T09:12:49;12.10;99.90
16966;DHT22;8599;47.852;12.070;2022-09-17T09:15:26;12.20;99.90
16966;DHT22;8599;47.852;12.070;2022-09-17T09:17:57;12.20;99.90
16966;DHT22;8599;47.852;12.070;2022-09-17T09:20:30;12.20;99.90
16966;DHT22;8599;47.852;12.070;2022-09-17T09:23:06;12.30;99.90
16966;DHT22;8599;47.852;12.070;2022-09-17T09:25:40;12.10;99.90
16966;DHT22;8599;47.852;12.070;2022-09-17T09:28:29;12.10;99.90
16966;DHT22;8599;47.852;12.070;2022-09-17T09:31:04;12.20;99.90
16966;DHT22;8599;47.852;12.070;2022-09-17T09:33:35;12.20;99.90
16966;DHT22;8599;47.852;12.070;2022-09-17T09:36:05;12.20;99.90
16966;DHT22;8599;47.852;12.070;2022-09-17T09:38:35;12.30;99.90
16966;DHT22;8599;47.852;12.070;2022-09-17T09:41:08;12.40;99.90
16966;DHT22;8599;47.852;12.070;2022-09-17T09:43:42;12.50;99.90
16966;DHT22;8599;47.852;12.070;2022-09-17T09:46:32;12.50;99.90
16966;DHT22;8599;47.852;12.070;2022-09-17T09:49:07;12.50;99.90
16966;DHT22;8599;47.852;12.070;2022-09-17T09:51:46;12.30;99.90
16966;DHT22;8599;47.852;12.070;2022-09-17T09:54:28;12.20;99.90
16966;DHT22;8599;47.852;12.070;2022-09-17T09:57:00;12.10;99.90
16966;DHT22;8599;47.852;12.070;2022-09-17T09:59:30;12.20;99.90
16966;DHT22;8599;47.852;12.070;2022-09-17T10:01:59;12.20;99.90
16966;DHT22;8599;47.852;12.070;2022-09-17T10:04:27;12.20;99.90
16966;DHT22;8599;47.852;12.070;2022-09-17T10:06:59;12.30;99.90
16966;DHT22;8599;47.852;12.070;2022-09-17T10:09:28;12.30;99.90
16966;DHT22;8599;47.852;12.070;2022-09-17T10:12:15;12.30;99.90
16966;DHT22;8599;47.852;12.070;2022-09-17T10:14:43;12.30;99.90
16966;DHT22;8599;47.852;12.070;2022-09-17T10:17:15;12.30;99.90
16966;DHT22;8599;47.852;12.070;2022-09-17T10:19:43;12.30;99.90
16966;DHT22;8599;47.852;12.070;2022-09-17T10:22:19;12.10;99.90
16966;DHT22;8599;47.852;12.070;2022-09-17T10:24:50;12.00;99.90
16966;DHT22;8599;47.852;12.070;2022-09-17T10:27:19;12.10;99.90
16966;DHT22;8599;47.852;12.070;2022-09-17T10:29:49;12.10;99.90
16966;DHT22;8599;47.852;12.070;2022-09-17T10:32:19;12.10;99.90
16966;DHT22;8599;47.852;12.070;2022-09-17T10:34:57;12.20;99.90
16966;DHT22;8599;47.852;12.070;2022-09-17T10:37:34;12.20;99.90
16966;DHT22;8599;47.852;12.070;2022-09-17T10:40:01;12.20;99.90
16966;DHT22;8599;47.852;12.070;2022-09-17T10:42:49;12.30;99.90
16966;DHT22;8599;47.852;12.070;2022-09-17T10:45:23;12.20;99.90
16966;DHT22;8599;47.852;12.070;2022-09-17T10:47:52;12.30;99.90
16966;DHT22;8599;47.852;12.070;2022-09-17T10:50:22;12.20;99.90
16966;DHT22;8599;47.852;12.070;2022-09-17T10:52:50;12.20;99.90
16966;DHT22;8599;47.852;12.070;2022-09-17T10:55:25;12.30;99.90
16966;DHT22;8599;47.852;12.070;2022-09-17T10:58:17;12.30;99.90
16966;DHT22;8599;47.852;12.070;2022-09-17T11:00:54;12.30;99.90
16966;DHT22;8599;47.852;12.070;2022-09-17T11:03:46;12.30;99.90
16966;DHT22;8599;47.852;12.070;2022-09-17T11:09:22;12.20;99.90
16966;DHT22;8599;47.852;12.070;2022-09-17T11:12:01;12.10;99.90
16966;DHT22;8599;47.852;12.070;2022-09-17T11:14:45;12.10;99.90
16966;DHT22;8599;47.852;12.070;2022-09-17T11:17:32;12.20;99.90
16966;DHT22;8599;47.852;12.070;2022-09-17T11:20:06;12.10;99.90
16966;DHT22;8599;47.852;12.070;2022-09-17T11:22:48;11.90;99.90
16966;DHT22;8599;47.852;12.070;2022-09-17T11:25:29;11.80;99.90
16966;DHT22;8599;47.852;12.070;2022-09-17T11:28:05;11.60;99.90
16966;DHT22;8599;47.852;12.070;2022-09-17T11:30:46;11.40;99.90
16966;DHT22;8599;47.852;12.070;2022-09-17T11:33:27;11.00;99.90
16966;DHT22;8599;47.852;12.070;2022-09-17T11:36:02;10.80;99.90
16966;DHT22;8599;47.852;12.070;2022-09-17T11:38:37;10.60;99.90
16966;DHT22;8599;47.852;12.070;2022-09-17T11:41:07;10.60;99.90
16966;DHT22;8599;47.852;12.070;2022-09-17T11:43:38;10.70;99.90
16966;DHT22;8599;47.852;12.070;2022-09-17T11:46:12;10.50;99.90
16966;DHT22;8599;47.852;12.070;2022-09-17T11:48:45;10.60;99.90
16966;DHT22;8599;47.852;12.070;2022-09-17T11:51:27;10.60;99.90
16966;DHT22;8599;47.852;12.070;2022-09-17T11:53:58;10.60;99.90
16966;DHT22;8599;47.852;12.070;2022-09-17T11:56:32;10.50;99.90
16966;DHT22;8599;47.852;12.070;2022-09-17T11:59:03;10.70;99.90
16966;DHT22;8599;47.852;12.070;2022-09-17T12:01:36;10.80;99.90
16966;DHT22;8599;47.852;12.070;2022-09-17T12:04:26;10.90;99.90
16966;DHT22;8599;47.852;12.070;2022-09-17T12:07:01;10.90;99.90
16966;DHT22;8599;47.852;12.070;2022-09-17T12:09:32;11.00;99.90
16966;DHT22;8599;47.852;12.070;2022-09-17T12:12:05;11.00;99.90
16966;DHT22;8599;47.852;12.070;2022-09-17T12:14:42;11.10;99.90
16966;DHT22;8599;47.852;12.070;2022-09-17T12:17:14;11.20;99.90
16966;DHT22;8599;47.852;12.070;2022-09-17T12:19:45;11.30;99.90
16966;DHT22;8599;47.852;12.070;2022-09-17T12:22:18;11.30;99.90
16966;DHT22;8599;47.852;12.070;2022-09-17T12:24:49;11.30;99.90
16966;DHT22;8599;47.852;12.070;2022-09-17T12:27:28;11.30;99.90
16966;DHT22;8599;47.852;12.070;2022-09-17T12:30:10;11.30;99.90
16966;DHT22;8599;47.852;12.070;2022-09-17T12:32:56;11.20;99.90
16966;DHT22;8599;47.852;12.070;2022-09-17T12:35:54;11.20;99.90
16966;DHT22;8599;47.852;12.070;2022-09-17T12:38:43;11.20;99.90
16966;DHT22;8599;47.852;12.070;2022-09-17T12:41:18;11.20;99.90
16966;DHT22;8599;47.852;12.070;2022-09-17T12:43:54;11.30;99.90
16966;DHT22;8599;47.852;12.070;2022-09-17T12:46:36;11.40;99.90
16966;DHT22;8599;47.852;12.070;2022-09-17T12:49:31;11.60;99.90
16966;DHT22;8599;47.852;12.070;2022-09-17T12:52:03;11.70;99.90
16966;DHT22;8599;47.852;12.070;2022-09-17T12:55:05;11.90;99.90
16966;DHT22;8599;47.852;12.070;2022-09-17T12:57:39;11.90;99.90
16966;DHT22;8599;47.852;12.070;2022-09-17T13:00:11;12.00;99.90
16966;DHT22;8599;47.852;12.070;2022-09-17T13:02:41;12.00;99.90
16966;DHT22;8599;47.852;12.070;2022-09-17T13:05:37;12.10;99.90
16966;DHT22;8599;47.852;12.070;2022-09-17T13:08:30;12.10;99.90
16966;DHT22;8599;47.852;12.070;2022-09-17T13:14:17;12.10;99.90
16966;DHT22;8599;47.852;12.070;2022-09-17T13:16:48;12.10;99.90
16966;DHT22;8599;47.852;12.070;2022-09-17T13:19:27;12.00;99.90
16966;DHT22;8599;47.852;12.070;2022-09-17T13:22:00;11.90;99.90
16966;DHT22;8599;47.852;12.070;2022-09-17T13:24:29;11.70;99.90
16966;DHT22;8599;47.852;12.070;2022-09-17T13:26:59;11.60;99.90
16966;DHT22;8599;47.852;12.070;2022-09-17T13:29:58;11.30;99.90
16966;DHT22;8599;47.852;12.070;2022-09-17T13:32:44;11.20;99.90
16966;DHT22;8599;47.852;12.070;2022-09-17T13:35:49;11.00;99.90
16966;DHT22;8599;47.852;12.070;2022-09-17T13:38:17;11.00;99.90
16966;DHT22;8599;47.852;12.070;2022-09-17T13:40:45;10.70;99.90
16966;DHT22;8599;47.852;12.070;2022-09-17T13:43:16;10.60;99.90
16966;DHT22;8599;47.852;12.070;2022-09-17T13:46:07;10.60;99.90
16966;DHT22;8599;47.852;12.070;2022-09-17T13:48:44;10.50;99.90
16966;DHT22;8599;47.852;12.070;2022-09-17T13:54:35;10.60;99.90
16966;DHT22;8599;47.852;12.070;2022-09-17T13:57:07;10.80;99.90
16966;DHT22;8599;47.852;12.070;2022-09-17T13:59:36;10.90;99.90
16966;DHT22;8599;47.852;12.070;2022-09-17T14:02:30;11.10;99.90
16966;DHT22;8599;47.852;12.070;2022-09-17T14:05:29;11.30;99.90
16966;DHT22;8599;47.852;12.070;2022-09-17T14:08:13;11.40;99.90
16966;DHT22;8599;47.852;12.070;2022-09-17T14:10:49;11.60;99.90
16966;DHT22;8599;47.852;12.070;2022-09-17T14:13:41;11.70;99.90
16966;DHT22;8599;47.852;12.070;2022-09-17T14:16:33;11.80;99.90
16966;DHT22;8599;47.852;12.070;2022-09-17T14:19:21;11.90;99.90
16966;DHT22;8599;47.852;12.070;2022-09-17T14:21:59;11.90;99.90
16966;DHT22;8599;47.852;12.070;2022-09-17T14:24:35;12.00;99.90
16966;DHT22;8599;47.852;12.070;2022-09-17T14:27:12;11.90;99.90
16966;DHT22;8599;47.852;12.070;2022-09-17T14:32:39;11.90;99.90
16966;DHT22;8599;47.852;12.070;2022-09-17T14:35:22;11.80;99.90
16966;DHT22;8599;47.852;12.070;2022-09-17T14:37:54;11.80;99.90
16966;DHT22;8599;47.852;12.070;2022-09-17T14:40:23;12.10;99.90
16966;DHT22;8599;47.852;12.070;2022-09-17T14:42:53;12.50;99.90
16966;DHT22;8599;47.852;12.070;2022-09-17T14:45:25;12.50;99.90
16966;DHT22;8599;47.852;12.070;2022-09-17T14:48:18;12.30;99.90
16966;DHT22;8599;47.852;12.070;2022-09-17T14:50:46;12.20;99.90
16966;DHT22;8599;47.852;12.070;2022-09-17T14:53:15;12.00;99.90
16966;DHT22;8599;47.852;12.070;2022-09-17T14:55:44;11.80;99.90
16966;DHT22;8599;47.852;12.070;2022-09-17T14:58:33;11.70;99.90
16966;DHT22;8599;47.852;12.070;2022-09-17T15:01:01;11.70;99.90
16966;DHT22;8599;47.852;12.070;2022-09-17T15:03:28;11.70;99.90
16966;DHT22;8599;47.852;12.070;2022-09-17T15:05:56;11.60;99.90
16966;DHT22;8599;47.852;12.070;2022-09-17T15:08:25;11.80;99.90
16966;DHT22;8599;47.852;12.070;2022-09-17T15:10:55;12.00;99.90
16966;DHT22;8599;47.852;12.070;2022-09-17T15:13:26;12.10;99.90
16966;DHT22;8599;47.852;12.070;2022-09-17T15:15:57;11.90;99.90
16966;DHT22;8599;47.852;12.070;2022-09-17T15:18:31;11.80;99.90
16966;DHT22;8599;47.852;12.070;2022-09-17T15:21:02;12.00;99.90
16966;DHT22;8599;47.852;12.070;2022-09-17T15:23:30;12.00;99.90
16966;DHT22;8599;47.852;12.070;2022-09-17T15:26:00;12.10;99.90
16966;DHT22;8599;47.852;12.070;2022-09-17T15:28:32;12.40;99.90
16966;DHT22;8599;47.852;12.070;2022-09-17T15:31:00;12.40;99.90
16966;DHT22;8599;47.852;12.070;2022-09-17T15:33:27;12.40;99.90
16966;DHT22;8599;47.852;12.070;2022-09-17T15:36:02;12.20;99.90
16966;DHT22;8599;47.852;12.070;2022-09-17T15:38:33;12.10;99.90
16966;DHT22;8599;47.852;12.070;2022-09-17T15:41:22;11.90;99.90
16966;DHT22;8599;47.852;12.070;2022-09-17T15:43:49;11.80;99.90
16966;DHT22;8599;47.852;12.070;2022-09-17T15:46:22;11.70;99.90
16966;DHT22;8599;47.852;12.070;2022-09-17T15:48:51;11.60;99.90
16966;DHT22;8599;47.852;12.070;2022-09-17T15:51:25;11.50;99.90
16966;DHT22;8599;47.852;12.070;2022-09-17T15:53:53;11.30;99.90
16966;DHT22;8599;47.852;12.070;2022-09-17T15:56:23;11.20;99.90
16966;DHT22;8599;47.852;12.070;2022-09-17T15:58:57;11.10;99.90
16966;DHT22;8599;47.852;12.070;2022-09-17T16:01:50;11.10;99.90
16966;DHT22;8599;47.852;12.070;2022-09-17T16:04:25;11.10;99.90
16966;DHT22;8599;47.852;12.070;2022-09-17T16:06:56;11.00;99.90
16966;DHT22;8599;47.852;12.070;2022-09-17T16:09:44;10.90;99.90
16966;DHT22;8599;47.852;12.070;2022-09-17T16:12:14;10.80;99.90
16966;DHT22;8599;47.852;12.070;2022-09-17T16:14:46;10.70;99.90
16966;DHT22;8599;47.852;12.070;2022-09-17T16:17:26;10.60;99.90
16966;DHT22;8599;47.852;12.070;2022-09-17T16:19:57;10.60;99.90